Time;durP1;ratioP1;P1;durP2;ratioP2;P2;SDS_P1;SDS_P2;PMS_P1;PMS_P2;Temp;Humidity;BMP_temperature;BMP_pressure;BME280_temperature;BME280_humidity;BME280_pressure;Samples;Min_cycle;Max_cycle;Signal;HPM_P1;HPM_P2
2022/09/21 00:02:36;;;;;;;;;;;;;;;10.70;73.25;100760.28;5348679;32;32898;-67
2022/09/21 00:05:38;;;;;;;;;;;;;;;10.84;72.66;100757.19;5323096;32;33870;-68
2022/09/21 00:08:40;;;;;;;;;;;;;;;11.30;70.87;100761.69;5328343;32;33371;-67
2022/09/21 00:11:42;;;;;;;;;;;;;;;11.76;69.28;100764.38;5315851;32;33819;-74
2022/09/21 00:14:44;;;;;;;;;;;;;;;12.76;64.81;100759.53;5340225;32;33444;-74
2022/09/21 00:17:48;;;;;;;;;;;;;;;11.54;68.65;100766.97;5323371;32;33809;-73
2022/09/21 00:20:53;;;;;;;;;;;;;;;11.96;68.25;100759.22;5327029;32;34965;-72
2022/09/21 00:23:55;;;;;;;;;;;;;;;11.49;69.54;100761.88;5315918;32;47055;-66
2022/09/21 00:26:57;;;;;;;;;;;;;;;11.48;68.91;100760.16;5322258;32;33590;-67
2022/09/21 00:30:01;;;;;;;;;;;;;;;11.30;70.27;100756.41;5339550;32;33937;-67
2022/09/21 00:33:03;;;;;;;;;;;;;;;12.12;66.59;100762.13;5323979;32;33686;-67
2022/09/21 00:36:06;;;;;;;;;;;;;;;11.82;67.81;100753.66;5322936;32;34125;-67
2022/09/21 00:39:08;;;;;;;;;;;;;;;12.19;66.59;100766.25;5314436;32;33699;-73
2022/09/21 00:42:13;;;;;;;;;;;;;;;11.69;68.16;100762.91;5323949;32;33521;-68
2022/09/21 00:45:20;;;;;;;;;;;;;;;11.94;67.78;100761.06;5333444;32;33863;-67
2022/09/21 00:48:22;;;;;;;;;;;;;;;11.89;67.42;100763.88;5338865;32;33814;-66
2022/09/21 00:51:23;;;;;;;;;;;;;;;11.36;68.87;100763.22;5340567;32;44693;-67
2022/09/21 00:54:27;;;;;;;;;;;;;;;11.47;69.40;100763.72;5322340;32;33600;-73
2022/09/21 00:57:30;;;;;;;;;;;;;;;12.01;67.13;100769.59;5339535;32;33594;-74
2022/09/21 01:00:31;;;;;;;;;;;;;;;11.42;69.10;100775.31;5308620;32;34471;-67
2022/09/21 01:03:33;;;;;;;;;;;;;;;11.28;70.00;100774.03;5323039;32;33291;-72
2022/09/21 01:06:35;;;;;;;;;;;;;;;11.99;66.02;100769.66;5332124;32;33159;-73
2022/09/21 01:09:38;;;;;;;;;;;;;;;11.50;68.39;100768.84;5325440;32;33136;-67
2022/09/21 01:12:40;;;;;;;;;;;;;;;11.49;68.28;100771.53;5339785;32;32826;-72
2022/09/21 01:15:57;;;;;;;;;;;;;;;11.71;67.99;100768.97;5325801;32;33983;-68
2022/09/21 01:19:09;;;;;;;;;;;;;;;11.41;68.09;100768.34;5330060;32;45123;-67
2022/09/21 01:22:23;;;;;;;;;;;;;;;11.73;67.45;100765.38;5324656;32;34274;-74
2022/09/21 01:25:43;;;;;;;;;;;;;;;12.13;65.66;100769.13;5321773;32;44654;-67
2022/09/21 01:28:54;;;;;;;;;;;;;;;11.10;68.72;100765.03;5342632;32;34164;-73
2022/09/21 01:32:07;;;;;;;;;;;;;;;11.70;65.41;100765.47;5326604;32;45298;-66
2022/09/21 01:35:19;;;;;;;;;;;;;;;11.83;66.98;100768.53;5340551;32;32821;-67
2022/09/21 01:38:26;;;;;;;;;;;;;;;11.24;69.46;100769.78;5355926;32;34024;-67
2022/09/21 01:41:28;;;;;;;;;;;;;;;10.90;69.94;100772.75;5311292;32;44787;-68
2022/09/21 01:44:32;;;;;;;;;;;;;;;11.56;67.81;100775.66;5318680;32;33930;-67
2022/09/21 01:47:34;;;;;;;;;;;;;;;11.28;68.58;100784.56;5325699;32;33106;-72
2022/09/21 01:50:37;;;;;;;;;;;;;;;11.67;68.03;100781.41;5354765;32;33053;-73
2022/09/21 01:53:52;;;;;;;;;;;;;;;12.27;65.06;100772.06;5338454;32;34374;-68
2022/09/21 01:56:54;;;;;;;;;;;;;;;12.70;62.56;100773.81;5324249;32;45668;-72
2022/09/21 01:59:56;;;;;;;;;;;;;;;12.52;63.39;100779.00;5349185;32;34382;-67
2022/09/21 02:03:00;;;;;;;;;;;;;;;12.36;64.30;100782.22;5338891;32;34416;-67
2022/09/21 02:06:04;;;;;;;;;;;;;;;12.16;64.38;100784.81;5339206;32;33103;-67
2022/09/21 02:09:07;;;;;;;;;;;;;;;11.88;65.50;100785.87;5313095;32;33710;-73
2022/09/21 02:12:09;;;;;;;;;;;;;;;11.30;67.80;100780.09;5343676;32;34087;-74
2022/09/21 02:15:11;;;;;;;;;;;;;;;11.69;65.79;100790.09;5337203;32;33721;-74
2022/09/21 02:18:39;;;;;;;;;;;;;;;11.62;66.11;100791.22;5313162;32;33583;-68
2022/09/21 02:22:19;;;;;;;;;;;;;;;11.89;65.86;100792.84;5331164;32;32774;-74
2022/09/21 02:25:25;;;;;;;;;;;;;;;11.35;66.67;100790.47;5268996;33;36470;-72
2022/09/21 02:28:37;;;;;;;;;;;;;;;11.71;66.28;100795.28;5261133;33;44542;-66
2022/09/21 02:32:05;;;;;;;;;;;;;;;11.92;65.71;100797.16;5324076;32;33551;-67
2022/09/21 02:35:10;;;;;;;;;;;;;;;11.37;67.84;100786.84;5321162;32;33688;-70
2022/09/21 02:38:21;;;;;;;;;;;;;;;11.97;65.44;100795.19;5354291;32;33703;-73
2022/09/21 02:41:49;;;;;;;;;;;;;;;10.95;68.98;100797.13;5294893;33;47072;-67
2022/09/21 02:45:09;;;;;;;;;;;;;;;11.42;66.90;100797.22;5287674;32;34631;-67
2022/09/21 02:48:12;;;;;;;;;;;;;;;10.61;71.38;100789.47;5341387;32;33516;-74
2022/09/21 02:51:20;;;;;;;;;;;;;;;10.81;70.40;100794.94;5323929;32;33734;-67
2022/09/21 02:54:23;;;;;;;;;;;;;;;11.12;69.71;100804.41;5343053;32;33628;-73
2022/09/21 02:57:25;;;;;;;;;;;;;;;10.96;70.07;100804.09;5347052;32;45112;-67
2022/09/21 03:00:27;;;;;;;;;;;;;;;11.29;69.42;100804.69;5338565;32;33577;-75
2022/09/21 03:03:29;;;;;;;;;;;;;;;11.29;68.46;100802.06;5351728;32;33746;-74
2022/09/21 03:06:30;;;;;;;;;;;;;;;10.52;70.88;100808.19;5318456;32;33253;-68
2022/09/21 03:09:32;;;;;;;;;;;;;;;11.12;69.57;100813.16;5329417;32;33009;-74
2022/09/21 03:12:34;;;;;;;;;;;;;;;10.84;70.63;100818.50;5307632;32;33498;-68
2022/09/21 03:15:37;;;;;;;;;;;;;;;10.68;71.14;100826.94;5325822;32;33431;-67
2022/09/21 03:18:39;;;;;;;;;;;;;;;11.88;65.98;100816.63;5324086;32;33308;-67
2022/09/21 03:21:41;;;;;;;;;;;;;;;11.58;67.15;100821.19;5325235;32;34130;-74
2022/09/21 03:24:45;;;;;;;;;;;;;;;11.79;65.98;100820.44;5337253;32;34141;-67
2022/09/21 03:27:47;;;;;;;;;;;;;;;12.04;64.97;100823.00;5318627;32;33559;-67
2022/09/21 03:30:49;;;;;;;;;;;;;;;11.45;67.36;100812.03;5345156;32;33714;-73
2022/09/21 03:33:51;;;;;;;;;;;;;;;10.92;69.30;100831.41;5312636;32;33108;-74
2022/09/21 03:36:53;;;;;;;;;;;;;;;11.16;69.06;100827.09;5343592;32;44863;-68
2022/09/21 03:39:55;;;;;;;;;;;;;;;11.10;69.05;100828.16;5337320;32;33508;-73
2022/09/21 03:42:57;;;;;;;;;;;;;;;11.70;66.82;100823.41;5309736;32;33313;-67
2022/09/21 03:45:59;;;;;;;;;;;;;;;11.72;66.61;100831.22;5334384;32;34184;-73
2022/09/21 03:49:01;;;;;;;;;;;;;;;12.51;63.75;100828.22;5325001;32;33808;-66
2022/09/21 03:52:03;;;;;;;;;;;;;;;12.24;64.17;100838.09;5341342;32;33101;-73
2022/09/21 03:55:06;;;;;;;;;;;;;;;11.49;67.26;100826.81;5324890;32;34019;-67
2022/09/21 03:58:08;;;;;;;;;;;;;;;11.52;67.46;100838.06;5330842;32;33910;-74
2022/09/21 04:01:10;;;;;;;;;;;;;;;12.47;63.69;100840.66;5333261;32;32242;-73
2022/09/21 04:04:12;;;;;;;;;;;;;;;12.52;63.20;100840.47;5321329;32;33741;-74
2022/09/21 04:07:14;;;;;;;;;;;;;;;12.09;65.23;100836.03;5329120;32;33379;-67
2022/09/21 04:10:17;;;;;;;;;;;;;;;12.46;63.33;100836.31;5312185;32;33534;-66
2022/09/21 04:13:19;;;;;;;;;;;;;;;11.57;66.46;100837.91;5339098;32;35321;-74
2022/09/21 04:16:21;;;;;;;;;;;;;;;11.80;66.60;100840.59;5300867;32;32926;-67
2022/09/21 04:19:23;;;;;;;;;;;;;;;10.87;70.22;100841.22;5345709;32;44880;-67
2022/09/21 04:22:25;;;;;;;;;;;;;;;11.09;69.82;100836.97;5328898;32;33680;-67
2022/09/21 04:25:27;;;;;;;;;;;;;;;11.87;67.02;100839.47;5330204;32;34302;-67
2022/09/21 04:28:31;;;;;;;;;;;;;;;12.22;64.67;100841.69;5343314;32;32954;-67
2022/09/21 04:31:33;;;;;;;;;;;;;;;12.17;64.22;100839.22;5326093;32;34256;-74
2022/09/21 04:34:36;;;;;;;;;;;;;;;11.79;66.26;100841.50;5340708;32;33876;-74
2022/09/21 04:37:38;;;;;;;;;;;;;;;11.44;67.64;100853.28;5325316;32;34044;-67
2022/09/21 04:40:39;;;;;;;;;;;;;;;11.45;67.69;100851.50;5333082;32;33625;-73
2022/09/21 04:43:42;;;;;;;;;;;;;;;11.50;67.54;100853.06;5314369;32;33992;-68
2022/09/21 04:46:44;;;;;;;;;;;;;;;11.54;66.89;100859.09;5325911;32;34263;-69
2022/09/21 04:49:46;;;;;;;;;;;;;;;11.41;67.66;100863.94;5343710;32;34032;-73
2022/09/21 04:52:48;;;;;;;;;;;;;;;11.55;66.63;100872.22;5324066;32;33301;-73
2022/09/21 04:55:50;;;;;;;;;;;;;;;12.03;64.89;100875.75;5343497;32;33627;-68
2022/09/21 04:58:51;;;;;;;;;;;;;;;11.43;67.42;100869.16;5324500;32;33713;-68
2022/09/21 05:01:53;;;;;;;;;;;;;;;11.09;67.18;100886.09;5327947;32;45104;-74
2022/09/21 05:04:55;;;;;;;;;;;;;;;11.18;67.21;100880.50;5332232;32;34098;-75
2022/09/21 05:07:57;;;;;;;;;;;;;;;10.92;68.24;100881.37;5313150;32;34247;-66
2022/09/21 05:10:59;;;;;;;;;;;;;;;11.43;66.78;100875.25;5329535;32;33427;-74
2022/09/21 05:14:00;;;;;;;;;;;;;;;12.06;64.05;100873.03;5324688;32;34780;-74
2022/09/21 05:17:02;;;;;;;;;;;;;;;11.34;66.79;100873.81;5333251;32;33921;-68
2022/09/21 05:20:04;;;;;;;;;;;;;;;11.90;65.38;100868.31;5322791;32;32861;-70
2022/09/21 05:23:06;;;;;;;;;;;;;;;11.30;67.31;100874.81;5325787;32;33781;-74
2022/09/21 05:26:08;;;;;;;;;;;;;;;11.07;67.74;100891.37;5334600;32;33048;-74
2022/09/21 05:29:10;;;;;;;;;;;;;;;11.62;66.04;100888.66;5324335;32;33149;-67
2022/09/21 05:32:17;;;;;;;;;;;;;;;12.73;62.23;100891.50;5340297;32;33055;-68
2022/09/21 05:35:31;;;;;;;;;;;;;;;12.03;65.36;100888.94;5324062;32;33366;-68
2022/09/21 05:38:33;;;;;;;;;;;;;;;13.08;60.45;100886.59;5335896;32;33636;-69
2022/09/21 05:41:35;;;;;;;;;;;;;;;12.79;62.04;100891.25;5323635;32;33867;-70
2022/09/21 05:44:37;;;;;;;;;;;;;;;12.83;61.11;100892.88;5299907;32;33281;-68
2022/09/21 05:47:42;;;;;;;;;;;;;;;13.11;60.39;100881.16;5332767;32;33762;-70
2022/09/21 05:51:03;;;;;;;;;;;;;;;14.24;56.61;100878.88;5321761;32;34638;-68
2022/09/21 05:54:08;;;;;;;;;;;;;;;13.40;58.91;100894.03;5317962;32;33836;-69
2022/09/21 05:57:16;;;;;;;;;;;;;;;13.99;57.00;100897.63;5312633;32;33006;-67
2022/09/21 06:00:19;;;;;;;;;;;;;;;14.00;56.27;100888.75;5319938;32;33471;-72
2022/09/21 06:03:28;;;;;;;;;;;;;;;13.96;57.07;100888.03;5330715;32;32887;-66
2022/09/21 06:06:30;;;;;;;;;;;;;;;13.94;57.30;100887.25;5318854;32;44603;-68
2022/09/21 06:09:34;;;;;;;;;;;;;;;14.44;55.88;100886.72;5331677;32;33782;-69
2022/09/21 06:12:42;;;;;;;;;;;;;;;15.22;52.80;100885.56;5317110;32;33445;-71
2022/09/21 06:15:43;;;;;;;;;;;;;;;13.52;57.46;100903.19;5328756;32;34014;-74
2022/09/21 06:18:45;;;;;;;;;;;;;;;14.15;56.11;100895.13;5319987;32;34687;-70
2022/09/21 06:21:47;;;;;;;;;;;;;;;13.93;55.58;100895.25;5312493;32;33749;-69
2022/09/21 06:24:49;;;;;;;;;;;;;;;14.29;55.98;100906.78;5329894;32;31581;-72
2022/09/21 06:27:51;;;;;;;;;;;;;;;15.43;52.88;100900.38;5320574;32;34272;-69
2022/09/21 06:30:54;;;;;;;;;;;;;;;14.45;54.48;100903.44;5331850;32;48494;-69
2022/09/21 06:33:56;;;;;;;;;;;;;;;15.49;50.70;100904.50;5315191;32;34934;-70
2022/09/21 06:36:57;;;;;;;;;;;;;;;16.03;50.25;100910.53;5326356;32;34265;-67
2022/09/21 06:39:59;;;;;;;;;;;;;;;17.65;45.83;100898.69;5326290;32;33052;-73
2022/09/21 06:43:02;;;;;;;;;;;;;;;17.42;46.34;100908.00;5300972;32;34570;-69
2022/09/21 06:46:04;;;;;;;;;;;;;;;19.20;41.92;100908.37;5324466;32;34390;-68
2022/09/21 06:49:06;;;;;;;;;;;;;;;19.72;40.77;100899.53;5316547;32;34052;-68
2022/09/21 06:52:08;;;;;;;;;;;;;;;19.03;41.54;100911.31;5331025;32;33186;-70
2022/09/21 06:55:10;;;;;;;;;;;;;;;19.53;41.73;100901.72;5311933;32;32805;-68
2022/09/21 06:58:12;;;;;;;;;;;;;;;17.79;45.39;100914.69;5333793;32;32764;-68
2022/09/21 07:01:14;;;;;;;;;;;;;;;17.87;45.28;100906.22;5323627;32;32967;-66
2022/09/21 07:04:16;;;;;;;;;;;;;;;19.91;40.34;100899.97;5302427;32;33312;-73
2022/09/21 07:07:24;;;;;;;;;;;;;;;19.71;41.22;100904.03;5313657;32;44690;-64
2022/09/21 07:10:26;;;;;;;;;;;;;;;19.53;40.56;100904.41;5317194;32;32827;-70
2022/09/21 07:13:28;;;;;;;;;;;;;;;20.21;40.04;100907.59;5331464;32;33084;-75
2022/09/21 07:16:30;;;;;;;;;;;;;;;21.65;36.23;100905.00;5304414;32;34362;-64
2022/09/21 07:19:32;;;;;;;;;;;;;;;20.35;37.98;100914.66;5320321;32;33702;-67
2022/09/21 07:22:34;;;;;;;;;;;;;;;21.65;36.26;100897.00;5320627;32;33190;-74
2022/09/21 07:25:36;;;;;;;;;;;;;;;19.66;39.28;100899.97;5316284;32;33482;-72
2022/09/21 07:28:38;;;;;;;;;;;;;;;22.42;34.68;100895.34;5333225;32;34583;-70
2022/09/21 07:31:42;;;;;;;;;;;;;;;21.99;35.00;100903.22;5318228;32;32814;-70
2022/09/21 07:34:44;;;;;;;;;;;;;;;21.90;34.84;100906.62;5334279;32;33010;-71
2022/09/21 07:37:46;;;;;;;;;;;;;;;22.96;34.10;100907.06;5315893;32;33448;-68
2022/09/21 07:40:48;;;;;;;;;;;;;;;21.26;36.70;100912.41;5315371;32;32711;-72
2022/09/21 07:43:50;;;;;;;;;;;;;;;23.88;32.63;100904.63;5296893;32;33783;-74
2022/09/21 07:46:52;;;;;;;;;;;;;;;24.89;30.64;100898.34;5305136;32;35095;-69
2022/09/21 07:49:54;;;;;;;;;;;;;;;24.02;32.16;100897.09;5334654;32;34583;-65
2022/09/21 07:52:57;;;;;;;;;;;;;;;24.49;30.36;100901.97;5321268;32;34338;-71
2022/09/21 07:56:03;;;;;;;;;;;;;;;21.48;35.75;100908.97;5324502;32;34255;-73
2022/09/21 07:59:05;;;;;;;;;;;;;;;21.30;36.45;100907.69;5313495;32;32952;-71
2022/09/21 08:02:07;;;;;;;;;;;;;;;20.38;38.64;100911.75;5321333;32;33060;-73
2022/09/21 08:05:09;;;;;;;;;;;;;;;18.35;42.82;100915.63;5334266;32;32880;-69
2022/09/21 08:08:11;;;;;;;;;;;;;;;18.86;41.42;100907.06;5325442;32;32909;-71
2022/09/21 08:11:13;;;;;;;;;;;;;;;17.86;43.34;100905.38;5335292;32;33812;-71
2022/09/21 08:14:18;;;;;;;;;;;;;;;16.85;45.99;100917.56;5324249;32;34232;-68
2022/09/21 08:17:28;;;;;;;;;;;;;;;17.42;44.78;100917.78;5335213;32;46862;-75
2022/09/21 08:20:30;;;;;;;;;;;;;;;16.08;48.78;100920.88;5325675;32;32805;-74
2022/09/21 08:23:32;;;;;;;;;;;;;;;16.93;46.45;100910.00;5318995;32;33229;-69
2022/09/21 08:26:34;;;;;;;;;;;;;;;16.53;47.53;100920.19;5328887;32;32866;-69
2022/09/21 08:29:36;;;;;;;;;;;;;;;17.82;44.98;100917.12;5328615;32;34009;-67
2022/09/21 08:32:38;;;;;;;;;;;;;;;16.69;47.04;100920.19;5337257;32;32982;-68
2022/09/21 08:35:53;;;;;;;;;;;;;;;16.52;48.04;100929.09;5318103;32;45520;-68
2022/09/21 08:38:55;;;;;;;;;;;;;;;16.68;47.58;100926.44;5328012;32;32037;-71
2022/09/21 08:41:57;;;;;;;;;;;;;;;16.12;48.77;100925.97;5306085;32;35402;-73
2022/09/21 08:45:01;;;;;;;;;;;;;;;16.58;48.42;100922.59;5305312;32;33063;-73
2022/09/21 08:48:04;;;;;;;;;;;;;;;17.16;46.99;100927.28;5327227;32;33064;-71
2022/09/21 08:51:07;;;;;;;;;;;;;;;19.58;41.21;100918.28;5303841;32;32840;-68
2022/09/21 08:54:12;;;;;;;;;;;;;;;19.40;41.08;100921.22;5333213;32;32905;-68
2022/09/21 08:57:14;;;;;;;;;;;;;;;18.23;42.85;100927.03;5301232;32;32839;-76
2022/09/21 09:00:17;;;;;;;;;;;;;;;16.57;46.67;100935.00;5324863;32;33035;-71
2022/09/21 09:03:25;;;;;;;;;;;;;;;18.05;43.76;100922.88;5320385;32;32895;-71
2022/09/21 09:06:34;;;;;;;;;;;;;;;20.39;38.63;100916.13;5287829;32;46009;-69
2022/09/21 09:09:44;;;;;;;;;;;;;;;19.77;38.85;100908.03;5335325;32;34741;-70
2022/09/21 09:12:59;;;;;;;;;;;;;;;20.97;37.77;100916.38;5319442;32;34739;-67
2022/09/21 09:16:07;;;;;;;;;;;;;;;23.11;33.50;100903.09;5328156;32;47659;-70
2022/09/21 09:19:16;;;;;;;;;;;;;;;21.65;35.65;100914.87;5327073;32;34522;-72
2022/09/21 09:22:19;;;;;;;;;;;;;;;22.86;33.79;100912.34;5320789;32;32987;-68
2022/09/21 09:25:21;;;;;;;;;;;;;;;23.28;32.66;100900.84;5325387;32;33060;-69
2022/09/21 09:28:26;;;;;;;;;;;;;;;23.04;33.40;100909.94;5321405;32;45443;-70
2022/09/21 09:31:28;;;;;;;;;;;;;;;21.90;34.93;100902.13;5316931;32;33045;-65
2022/09/21 09:34:34;;;;;;;;;;;;;;;22.75;33.14;100900.75;5323015;32;33541;-68
2022/09/21 09:37:36;;;;;;;;;;;;;;;22.46;34.87;100908.47;5321228;32;33380;-65
2022/09/21 09:40:47;;;;;;;;;;;;;;;20.32;37.29;100914.84;5318308;32;34358;-68
2022/09/21 09:44:03;;;;;;;;;;;;;;;20.71;36.92;100912.97;5286313;32;33786;-68
2022/09/21 09:47:24;;;;;;;;;;;;;;;23.13;32.52;100903.81;5331935;32;33005;-70
2022/09/21 09:50:27;;;;;;;;;;;;;;;23.68;31.57;100901.84;5320219;32;46743;-68
2022/09/21 09:53:30;;;;;;;;;;;;;;;22.00;34.11;100896.88;5322427;32;33102;-71
2022/09/21 09:56:32;;;;;;;;;;;;;;;22.07;33.75;100902.63;5330947;32;32950;-67
2022/09/21 09:59:42;;;;;;;;;;;;;;;25.25;28.74;100907.63;5320604;32;32979;-72
2022/09/21 10:02:48;;;;;;;;;;;;;;;27.33;26.70;100882.03;5335379;32;32750;-74
2022/09/21 10:05:50;;;;;;;;;;;;;;;23.89;31.84;100909.03;5289094;32;33130;-72
2022/09/21 10:08:52;;;;;;;;;;;;;;;25.67;28.61;100889.28;5329002;32;45603;-73
2022/09/21 10:11:59;;;;;;;;;;;;;;;25.34;29.07;100886.06;5308993;32;35403;-69
2022/09/21 10:15:01;;;;;;;;;;;;;;;27.06;27.11;100886.53;5317179;32;32880;-74
2022/09/21 10:18:05;;;;;;;;;;;;;;;26.58;27.24;100887.66;5334591;32;33170;-73
2022/09/21 10:21:08;;;;;;;;;;;;;;;25.44;28.82;100888.78;5288134;32;33371;-70
2022/09/21 10:24:21;;;;;;;;;;;;;;;26.33;27.04;100883.81;5330339;32;33543;-74
2022/09/21 10:27:26;;;;;;;;;;;;;;;24.93;29.09;100883.66;5314897;32;44530;-73
2022/09/21 10:30:28;;;;;;;;;;;;;;;24.65;29.80;100885.31;5311766;32;33710;-74
2022/09/21 10:33:30;;;;;;;;;;;;;;;23.30;31.81;100867.53;5288372;32;35790;-80
2022/09/21 10:36:33;;;;;;;;;;;;;;;23.02;32.03;100878.88;5320069;32;34238;-71
2022/09/21 10:39:35;;;;;;;;;;;;;;;20.09;37.42;100887.13;5336161;32;33251;-70
2022/09/21 10:42:40;;;;;;;;;;;;;;;18.88;40.10;100892.72;5304974;32;32960;-69
2022/09/21 10:45:42;;;;;;;;;;;;;;;20.43;38.21;100888.25;5322836;32;34255;-71
2022/09/21 10:48:44;;;;;;;;;;;;;;;20.22;38.70;100890.66;5313360;32;32594;-69
2022/09/21 10:51:47;;;;;;;;;;;;;;;20.26;38.39;100884.13;5324291;32;33412;-67
2022/09/21 10:54:51;;;;;;;;;;;;;;;20.23;38.47;100883.50;5329150;32;32942;-72
2022/09/21 10:57:52;;;;;;;;;;;;;;;20.22;38.02;100881.75;5322068;32;44793;-68
2022/09/21 11:00:56;;;;;;;;;;;;;;;20.47;37.72;100871.06;5331892;32;32471;-67
2022/09/21 11:03:59;;;;;;;;;;;;;;;19.08;40.31;100877.22;5317656;32;33552;-73
2022/09/21 11:07:04;;;;;;;;;;;;;;;20.26;37.93;100873.44;5310639;32;33046;-75
2022/09/21 11:10:12;;;;;;;;;;;;;;;19.33;38.40;100877.28;5317180;32;34301;-71
2022/09/21 11:13:28;;;;;;;;;;;;;;;18.72;39.50;100876.03;5295480;32;32724;-70
2022/09/21 11:16:51;;;;;;;;;;;;;;;18.36;40.39;100873.91;5327882;32;44513;-72
2022/09/21 11:20:02;;;;;;;;;;;;;;;18.40;41.25;100868.28;5292296;32;45951;-71
2022/09/21 11:23:10;;;;;;;;;;;;;;;19.11;39.45;100864.53;5325791;32;34299;-72
2022/09/21 11:26:11;;;;;;;;;;;;;;;19.35;39.08;100858.50;5323483;32;33093;-75
2022/09/21 11:29:25;;;;;;;;;;;;;;;18.18;39.50;100864.44;5317661;32;34179;-70
2022/09/21 11:32:35;;;;;;;;;;;;;;;18.13;39.49;100862.06;5327917;32;34927;-71
2022/09/21 11:35:57;;;;;;;;;;;;;;;18.63;39.46;100857.97;5317936;32;33106;-72
2022/09/21 11:39:07;;;;;;;;;;;;;;;18.86;39.33;100849.34;5327025;32;44597;-73
2022/09/21 11:42:23;;;;;;;;;;;;;;;19.04;39.46;100849.06;5303287;32;35715;-69
2022/09/21 11:45:43;;;;;;;;;;;;;;;19.52;38.31;100844.03;5302840;32;44220;-68
2022/09/21 11:48:53;;;;;;;;;;;;;;;19.95;35.98;100848.09;5328511;32;33275;-71
2022/09/21 11:52:02;;;;;;;;;;;;;;;20.44;34.68;100841.91;5319250;32;44961;-73
2022/09/21 11:55:08;;;;;;;;;;;;;;;20.75;33.36;100837.84;5325204;32;32628;-67
2022/09/21 11:58:17;;;;;;;;;;;;;;;20.23;33.65;100832.78;5328545;32;34171;-70
2022/09/21 12:01:30;;;;;;;;;;;;;;;19.16;36.39;100830.44;5313753;32;33477;-69
2022/09/21 12:04:55;;;;;;;;;;;;;;;20.18;34.59;100819.75;5313502;32;35323;-75
2022/09/21 12:08:17;;;;;;;;;;;;;;;19.85;35.26;100819.53;5295310;32;43173;-73
2022/09/21 12:11:19;;;;;;;;;;;;;;;20.57;34.05;100811.66;5329576;32;34177;-74
2022/09/21 12:14:24;;;;;;;;;;;;;;;18.68;37.71;100821.28;5325213;32;34290;-72
2022/09/21 12:17:35;;;;;;;;;;;;;;;19.79;36.01;100814.62;5317687;32;44836;-71
2022/09/21 12:21:07;;;;;;;;;;;;;;;20.06;34.97;100807.31;5325629;32;33092;-66
2022/09/21 12:24:26;;;;;;;;;;;;;;;20.04;35.35;100803.91;5309519;32;33943;-74
2022/09/21 12:27:33;;;;;;;;;;;;;;;20.29;34.66;100811.84;5304066;32;33717;-73
2022/09/21 12:30:36;;;;;;;;;;;;;;;20.37;34.96;100818.44;5327949;32;32951;-70
2022/09/21 12:33:44;;;;;;;;;;;;;;;21.00;33.26;100812.81;5312216;32;33007;-70
2022/09/21 12:36:49;;;;;;;;;;;;;;;21.71;32.02;100802.03;5319852;32;32645;-68
2022/09/21 12:39:57;;;;;;;;;;;;;;;21.61;32.88;100789.37;5297523;32;33641;-75
2022/09/21 12:43:18;;;;;;;;;;;;;;;21.61;32.99;100789.37;5312667;32;44844;-71
2022/09/21 12:46:21;;;;;;;;;;;;;;;19.29;38.05;100806.47;5331676;32;33357;-72
2022/09/21 12:49:25;;;;;;;;;;;;;;;19.65;37.55;100812.94;5319362;32;44256;-75
2022/09/21 12:52:27;;;;;;;;;;;;;;;17.99;38.76;100823.03;5332129;32;32950;-70
2022/09/21 12:55:28;;;;;;;;;;;;;;;18.88;36.69;100818.16;5315268;32;33106;-70
2022/09/21 12:58:36;;;;;;;;;;;;;;;19.61;35.02;100808.75;5328963;32;33691;-71
2022/09/21 13:01:46;;;;;;;;;;;;;;;19.01;36.96;100801.34;5327251;32;34128;-73
2022/09/21 13:05:07;;;;;;;;;;;;;;;21.77;32.51;100793.53;5317469;32;32879;-70
2022/09/21 13:08:08;;;;;;;;;;;;;;;21.64;32.72;100793.66;5333928;32;32933;-67
2022/09/21 13:11:10;;;;;;;;;;;;;;;21.60;32.62;100790.34;5321804;32;32502;-71
2022/09/21 13:14:12;;;;;;;;;;;;;;;24.49;28.48;100778.38;5330754;32;34472;-70
2022/09/21 13:17:18;;;;;;;;;;;;;;;26.71;25.06;100768.66;5326907;32;34430;-68
2022/09/21 13:20:20;;;;;;;;;;;;;;;26.73;25.12;100772.06;5316240;32;32923;-80
2022/09/21 13:23:25;;;;;;;;;;;;;;;26.84;25.30;100763.72;5325853;32;44779;-70
2022/09/21 13:26:34;;;;;;;;;;;;;;;27.59;24.11;100765.94;5311773;32;33078;-71
2022/09/21 13:29:38;;;;;;;;;;;;;;;25.29;26.82;100764.59;5303173;32;34281;-69
2022/09/21 13:32:50;;;;;;;;;;;;;;;20.94;33.44;100785.72;5321951;32;33082;-70
2022/09/21 13:36:00;;;;;;;;;;;;;;;18.95;36.99;100786.63;5318049;32;44438;-68
2022/09/21 13:39:10;;;;;;;;;;;;;;;18.44;38.53;100781.12;5316752;32;32959;-68
2022/09/21 13:42:31;;;;;;;;;;;;;;;18.89;37.78;100787.03;5315680;32;34550;-70
2022/09/21 13:45:33;;;;;;;;;;;;;;;18.62;38.35;100784.38;5328263;32;34239;-68
2022/09/21 13:48:36;;;;;;;;;;;;;;;18.38;39.22;100777.06;5322346;32;33889;-69
2022/09/21 13:51:56;;;;;;;;;;;;;;;19.38;36.83;100768.53;5326945;32;34028;-71
2022/09/21 13:54:59;;;;;;;;;;;;;;;19.90;36.49;100778.22;5332318;32;45332;-74
2022/09/21 13:58:03;;;;;;;;;;;;;;;18.88;37.92;100785.34;5311681;32;33062;-70
2022/09/21 14:01:06;;;;;;;;;;;;;;;18.25;38.16;100770.81;5335009;32;33568;-74
2022/09/21 14:04:23;;;;;;;;;;;;;;;18.66;37.92;100785.87;5316206;32;31961;-74
2022/09/21 14:07:27;;;;;;;;;;;;;;;19.32;36.66;100776.09;5330052;32;44490;-71
2022/09/21 14:10:31;;;;;;;;;;;;;;;19.41;35.12;100773.66;5324071;32;33733;-77
2022/09/21 14:13:40;;;;;;;;;;;;;;;19.16;35.26;100779.81;5312006;32;33027;-76
2022/09/21 14:16:46;;;;;;;;;;;;;;;19.14;35.21;100770.25;5331806;32;33912;-73
2022/09/21 14:19:54;;;;;;;;;;;;;;;18.74;36.54;100775.63;5322498;32;32905;-69
2022/09/21 14:23:10;;;;;;;;;;;;;;;19.28;35.45;100772.81;5324673;32;44603;-68
2022/09/21 14:26:19;;;;;;;;;;;;;;;19.39;35.53;100777.41;5319380;32;32831;-64
2022/09/21 14:29:27;;;;;;;;;;;;;;;18.53;37.53;100783.16;5317424;32;34004;-67
2022/09/21 14:32:34;;;;;;;;;;;;;;;18.50;37.83;100783.38;5317278;32;44514;-65
2022/09/21 14:35:36;;;;;;;;;;;;;;;18.49;37.90;100768.38;5314160;32;34488;-66
2022/09/21 14:38:49;;;;;;;;;;;;;;;18.29;38.32;100775.00;5330154;32;33684;-74
2022/09/21 14:41:55;;;;;;;;;;;;;;;18.44;38.60;100781.12;5318009;32;45052;-74
2022/09/21 14:45:00;;;;;;;;;;;;;;;17.87;38.72;100782.09;5294679;32;36149;-69
2022/09/21 14:48:05;;;;;;;;;;;;;;;18.60;37.23;100780.94;5324455;32;33115;-75
2022/09/21 14:51:10;;;;;;;;;;;;;;;18.69;36.77;100779.53;5324264;32;33982;-69
2022/09/21 14:54:16;;;;;;;;;;;;;;;18.78;36.77;100768.25;5331803;32;33714;-74
2022/09/21 14:57:18;;;;;;;;;;;;;;;18.41;37.52;100775.97;5321889;32;34029;-69
2022/09/21 15:00:25;;;;;;;;;;;;;;;18.80;37.11;100769.84;5333912;32;35515;-74
2022/09/21 15:03:41;;;;;;;;;;;;;;;18.38;38.08;100777.06;5321925;32;46511;-68
2022/09/21 15:13:55;;;;;;;;;;;;;;;18.14;38.81;100773.31;5319324;32;32981;-73
2022/09/21 15:16:57;;;;;;;;;;;;;;;18.01;39.16;100773.25;5321682;32;34988;-69
2022/09/21 15:19:59;;;;;;;;;;;;;;;18.26;38.91;100772.53;5339897;32;33851;-71
2022/09/21 15:23:03;;;;;;;;;;;;;;;18.19;38.94;100775.69;5316625;32;33842;-75
2022/09/21 15:26:08;;;;;;;;;;;;;;;17.75;39.70;100785.53;5338852;32;32396;-75
2022/09/21 15:29:16;;;;;;;;;;;;;;;17.63;39.65;100778.28;5315330;32;33391;-74
2022/09/21 15:32:28;;;;;;;;;;;;;;;18.12;38.98;100783.22;5332639;32;34288;-69
2022/09/21 15:35:31;;;;;;;;;;;;;;;18.05;38.49;100790.72;5335273;32;45301;-70
2022/09/21 15:38:35;;;;;;;;;;;;;;;17.49;39.00;100779.16;5315352;32;34552;-70
2022/09/21 15:41:38;;;;;;;;;;;;;;;17.82;38.71;100789.50;5338049;32;32981;-71
2022/09/21 15:44:42;;;;;;;;;;;;;;;17.14;39.75;100785.75;5302836;32;34123;-66
2022/09/21 15:47:44;;;;;;;;;;;;;;;17.64;38.88;100787.97;5337654;32;32868;-69
2022/09/21 15:50:47;;;;;;;;;;;;;;;17.38;39.19;100794.03;5323999;32;33159;-72
2022/09/21 15:53:54;;;;;;;;;;;;;;;17.38;39.27;100799.34;5319996;32;34265;-70
2022/09/21 15:56:58;;;;;;;;;;;;;;;17.75;38.74;100798.81;5336965;32;44585;-71
2022/09/21 16:00:00;;;;;;;;;;;;;;;16.97;39.88;100815.97;5321847;32;34443;-70